sensor_id;sensor_type;location;lat;lon;timestamp;P1;durP1;ratioP1;P2;durP2;ratioP2
20296;SDS011;10307;40.100;18.336;2022-12-29T00:01:35;51.88;;;28.85;;
20296;SDS011;10307;40.100;18.336;2022-12-29T00:04:02;54.85;;;29.23;;
20296;SDS011;10307;40.100;18.336;2022-12-29T00:06:29;51.78;;;29.83;;
20296;SDS011;10307;40.100;18.336;2022-12-29T00:08:56;55.78;;;30.52;;
20296;SDS011;10307;40.100;18.336;2022-12-29T00:11:24;52.38;;;29.50;;
20296;SDS011;10307;40.100;18.336;2022-12-29T00:13:52;56.28;;;29.98;;
20296;SDS011;10307;40.100;18.336;2022-12-29T00:16:40;58.97;;;29.88;;
20296;SDS011;10307;40.100;18.336;2022-12-29T00:19:08;50.38;;;28.20;;
20296;SDS011;10307;40.100;18.336;2022-12-29T00:21:56;55.42;;;29.70;;
20296;SDS011;10307;40.100;18.336;2022-12-29T00:24:42;52.47;;;29.00;;
20296;SDS011;10307;40.100;18.336;2022-12-29T00:27:19;58.08;;;30.45;;
20296;SDS011;10307;40.100;18.336;2022-12-29T00:30:11;57.30;;;31.38;;
20296;SDS011;10307;40.100;18.336;2022-12-29T00:32:57;52.53;;;28.77;;
20296;SDS011;10307;40.100;18.336;2022-12-29T00:35:46;47.97;;;28.38;;
20296;SDS011;10307;40.100;18.336;2022-12-29T00:38:18;43.45;;;26.48;;
20296;SDS011;10307;40.100;18.336;2022-12-29T00:41:04;40.58;;;24.20;;
20296;SDS011;10307;40.100;18.336;2022-12-29T00:43:49;44.35;;;25.38;;
20296;SDS011;10307;40.100;18.336;2022-12-29T00:46:33;51.13;;;26.55;;
20296;SDS011;10307;40.100;18.336;2022-12-29T00:49:00;43.67;;;25.85;;
20296;SDS011;10307;40.100;18.336;2022-12-29T00:51:46;38.45;;;22.95;;
20296;SDS011;10307;40.100;18.336;2022-12-29T00:54:12;37.15;;;21.88;;
20296;SDS011;10307;40.100;18.336;2022-12-29T00:56:40;36.83;;;22.38;;
20296;SDS011;10307;40.100;18.336;2022-12-29T00:59:07;34.83;;;21.42;;
20296;SDS011;10307;40.100;18.336;2022-12-29T01:01:36;37.30;;;20.73;;
20296;SDS011;10307;40.100;18.336;2022-12-29T01:04:04;35.40;;;21.67;;
20296;SDS011;10307;40.100;18.336;2022-12-29T01:06:31;34.58;;;21.17;;
20296;SDS011;10307;40.100;18.336;2022-12-29T01:08:58;36.35;;;21.83;;
20296;SDS011;10307;40.100;18.336;2022-12-29T01:11:43;32.95;;;20.33;;
20296;SDS011;10307;40.100;18.336;2022-12-29T01:14:10;32.75;;;21.45;;
20296;SDS011;10307;40.100;18.336;2022-12-29T01:16:36;34.13;;;21.73;;
20296;SDS011;10307;40.100;18.336;2022-12-29T01:19:03;36.17;;;23.08;;
20296;SDS011;10307;40.100;18.336;2022-12-29T01:21:30;39.65;;;22.98;;
20296;SDS011;10307;40.100;18.336;2022-12-29T01:23:56;49.58;;;28.60;;
20296;SDS011;10307;40.100;18.336;2022-12-29T01:26:22;46.90;;;28.95;;
20296;SDS011;10307;40.100;18.336;2022-12-29T01:28:51;42.22;;;26.10;;
20296;SDS011;10307;40.100;18.336;2022-12-29T01:31:17;45.55;;;27.17;;
20296;SDS011;10307;40.100;18.336;2022-12-29T01:33:44;46.00;;;26.23;;
20296;SDS011;10307;40.100;18.336;2022-12-29T01:36:13;48.80;;;28.75;;
20296;SDS011;10307;40.100;18.336;2022-12-29T01:38:42;51.03;;;27.13;;
20296;SDS011;10307;40.100;18.336;2022-12-29T01:41:10;46.05;;;26.35;;
20296;SDS011;10307;40.100;18.336;2022-12-29T01:43:51;43.33;;;25.70;;
20296;SDS011;10307;40.100;18.336;2022-12-29T01:48:59;47.38;;;26.70;;
20296;SDS011;10307;40.100;18.336;2022-12-29T01:51:57;47.47;;;27.73;;
20296;SDS011;10307;40.100;18.336;2022-12-29T01:54:32;47.92;;;27.60;;
20296;SDS011;10307;40.100;18.336;2022-12-29T01:57:07;45.33;;;25.48;;
20296;SDS011;10307;40.100;18.336;2022-12-29T01:59:38;44.65;;;23.98;;
20296;SDS011;10307;40.100;18.336;2022-12-29T02:02:09;44.60;;;24.75;;
20296;SDS011;10307;40.100;18.336;2022-12-29T02:04:39;36.20;;;22.20;;
20296;SDS011;10307;40.100;18.336;2022-12-29T02:07:13;36.22;;;21.77;;
20296;SDS011;10307;40.100;18.336;2022-12-29T02:09:43;32.25;;;21.13;;
20296;SDS011;10307;40.100;18.336;2022-12-29T02:12:15;36.97;;;20.38;;
20296;SDS011;10307;40.100;18.336;2022-12-29T02:14:43;30.77;;;20.05;;
20296;SDS011;10307;40.100;18.336;2022-12-29T02:41:42;36.38;;;20.30;;
20296;SDS011;10307;40.100;18.336;2022-12-29T02:46:54;36.20;;;20.00;;
20296;SDS011;10307;40.100;18.336;2022-12-29T02:52:13;34.42;;;20.98;;
20296;SDS011;10307;40.100;18.336;2022-12-29T02:54:43;40.72;;;21.58;;
20296;SDS011;10307;40.100;18.336;2022-12-29T02:59:54;39.47;;;23.27;;
20296;SDS011;10307;40.100;18.336;2022-12-29T03:05:44;35.80;;;23.10;;
20296;SDS011;10307;40.100;18.336;2022-12-29T03:08:31;39.30;;;22.83;;
20296;SDS011;10307;40.100;18.336;2022-12-29T03:11:09;40.60;;;23.42;;
20296;SDS011;10307;40.100;18.336;2022-12-29T03:13:59;38.95;;;22.25;;
20296;SDS011;10307;40.100;18.336;2022-12-29T03:17:15;37.33;;;21.45;;
20296;SDS011;10307;40.100;18.336;2022-12-29T03:20:01;35.03;;;20.67;;
20296;SDS011;10307;40.100;18.336;2022-12-29T03:22:36;31.20;;;19.33;;
20296;SDS011;10307;40.100;18.336;2022-12-29T03:25:15;32.03;;;19.00;;
20296;SDS011;10307;40.100;18.336;2022-12-29T03:27:52;31.52;;;18.77;;
20296;SDS011;10307;40.100;18.336;2022-12-29T03:30:22;37.30;;;20.02;;
20296;SDS011;10307;40.100;18.336;2022-12-29T03:32:57;34.47;;;20.25;;
20296;SDS011;10307;40.100;18.336;2022-12-29T03:35:30;35.25;;;21.45;;
20296;SDS011;10307;40.100;18.336;2022-12-29T03:40:50;31.35;;;18.98;;
20296;SDS011;10307;40.100;18.336;2022-12-29T03:43:22;33.55;;;18.55;;
20296;SDS011;10307;40.100;18.336;2022-12-29T03:45:49;30.95;;;18.80;;
20296;SDS011;10307;40.100;18.336;2022-12-29T03:48:15;29.55;;;18.10;;
20296;SDS011;10307;40.100;18.336;2022-12-29T03:50:43;34.70;;;17.92;;
20296;SDS011;10307;40.100;18.336;2022-12-29T03:53:09;31.15;;;18.05;;
20296;SDS011;10307;40.100;18.336;2022-12-29T03:55:37;35.35;;;18.52;;
20296;SDS011;10307;40.100;18.336;2022-12-29T03:58:03;36.90;;;20.33;;
20296;SDS011;10307;40.100;18.336;2022-12-29T04:00:49;41.53;;;19.83;;
20296;SDS011;10307;40.100;18.336;2022-12-29T04:03:17;38.05;;;20.35;;
20296;SDS011;10307;40.100;18.336;2022-12-29T04:05:44;35.72;;;20.25;;
20296;SDS011;10307;40.100;18.336;2022-12-29T04:08:10;42.20;;;21.25;;
20296;SDS011;10307;40.100;18.336;2022-12-29T04:10:37;41.65;;;21.30;;
20296;SDS011;10307;40.100;18.336;2022-12-29T04:13:04;38.55;;;19.80;;
20296;SDS011;10307;40.100;18.336;2022-12-29T04:15:31;36.50;;;19.70;;
20296;SDS011;10307;40.100;18.336;2022-12-29T04:17:57;40.47;;;19.45;;
20296;SDS011;10307;40.100;18.336;2022-12-29T04:20:24;37.60;;;19.58;;
20296;SDS011;10307;40.100;18.336;2022-12-29T04:23:09;32.85;;;19.10;;
20296;SDS011;10307;40.100;18.336;2022-12-29T04:25:37;31.08;;;17.90;;
20296;SDS011;10307;40.100;18.336;2022-12-29T04:28:03;35.65;;;19.35;;
20296;SDS011;10307;40.100;18.336;2022-12-29T04:30:50;30.02;;;17.42;;
20296;SDS011;10307;40.100;18.336;2022-12-29T04:33:25;32.70;;;16.80;;
20296;SDS011;10307;40.100;18.336;2022-12-29T04:35:53;31.10;;;16.40;;
20296;SDS011;10307;40.100;18.336;2022-12-29T04:38:21;33.33;;;16.83;;
20296;SDS011;10307;40.100;18.336;2022-12-29T04:40:49;31.60;;;17.02;;
20296;SDS011;10307;40.100;18.336;2022-12-29T04:43:18;29.98;;;17.10;;
20296;SDS011;10307;40.100;18.336;2022-12-29T04:46:04;31.60;;;16.13;;
20296;SDS011;10307;40.100;18.336;2022-12-29T04:48:38;32.35;;;17.50;;
20296;SDS011;10307;40.100;18.336;2022-12-29T04:51:25;31.92;;;17.50;;
20296;SDS011;10307;40.100;18.336;2022-12-29T04:53:51;34.35;;;18.77;;
20296;SDS011;10307;40.100;18.336;2022-12-29T04:56:17;33.20;;;18.35;;
20296;SDS011;10307;40.100;18.336;2022-12-29T04:58:43;31.80;;;18.92;;
20296;SDS011;10307;40.100;18.336;2022-12-29T05:01:10;32.58;;;17.90;;
20296;SDS011;10307;40.100;18.336;2022-12-29T05:03:36;31.92;;;18.00;;
20296;SDS011;10307;40.100;18.336;2022-12-29T05:06:03;32.38;;;18.27;;
20296;SDS011;10307;40.100;18.336;2022-12-29T05:08:29;29.30;;;15.82;;
20296;SDS011;10307;40.100;18.336;2022-12-29T05:10:58;27.15;;;16.42;;
20296;SDS011;10307;40.100;18.336;2022-12-29T05:13:25;29.15;;;16.13;;
20296;SDS011;10307;40.100;18.336;2022-12-29T05:15:52;28.17;;;15.43;;
20296;SDS011;10307;40.100;18.336;2022-12-29T05:18:21;30.75;;;16.15;;
20296;SDS011;10307;40.100;18.336;2022-12-29T05:20:48;33.25;;;16.67;;
20296;SDS011;10307;40.100;18.336;2022-12-29T05:23:15;32.88;;;17.15;;
20296;SDS011;10307;40.100;18.336;2022-12-29T05:25:43;33.45;;;17.73;;
20296;SDS011;10307;40.100;18.336;2022-12-29T05:28:16;30.60;;;15.95;;
20296;SDS011;10307;40.100;18.336;2022-12-29T05:30:53;30.50;;;16.83;;
20296;SDS011;10307;40.100;18.336;2022-12-29T05:33:19;31.50;;;17.10;;
20296;SDS011;10307;40.100;18.336;2022-12-29T05:35:47;30.35;;;15.73;;
20296;SDS011;10307;40.100;18.336;2022-12-29T05:38:14;33.60;;;18.80;;
20296;SDS011;10307;40.100;18.336;2022-12-29T05:40:41;42.65;;;21.17;;
20296;SDS011;10307;40.100;18.336;2022-12-29T05:43:34;46.83;;;21.73;;
20296;SDS011;10307;40.100;18.336;2022-12-29T05:46:21;33.05;;;17.67;;
20296;SDS011;10307;40.100;18.336;2022-12-29T05:49:10;36.08;;;19.45;;
20296;SDS011;10307;40.100;18.336;2022-12-29T05:51:50;33.15;;;19.00;;
20296;SDS011;10307;40.100;18.336;2022-12-29T05:54:17;40.17;;;21.63;;
20296;SDS011;10307;40.100;18.336;2022-12-29T05:56:43;49.85;;;24.08;;
20296;SDS011;10307;40.100;18.336;2022-12-29T05:59:09;35.58;;;18.77;;
20296;SDS011;10307;40.100;18.336;2022-12-29T06:01:36;36.10;;;19.67;;
20296;SDS011;10307;40.100;18.336;2022-12-29T06:04:02;36.75;;;18.13;;
20296;SDS011;10307;40.100;18.336;2022-12-29T06:06:30;43.10;;;19.95;;
20296;SDS011;10307;40.100;18.336;2022-12-29T06:08:57;28.45;;;17.02;;
20296;SDS011;10307;40.100;18.336;2022-12-29T06:11:23;29.92;;;16.55;;
20296;SDS011;10307;40.100;18.336;2022-12-29T06:13:54;24.47;;;13.60;;
20296;SDS011;10307;40.100;18.336;2022-12-29T06:16:22;26.15;;;12.48;;
20296;SDS011;10307;40.100;18.336;2022-12-29T06:18:52;22.42;;;12.82;;
20296;SDS011;10307;40.100;18.336;2022-12-29T06:21:19;24.00;;;12.75;;
20296;SDS011;10307;40.100;18.336;2022-12-29T06:23:45;28.95;;;13.48;;
20296;SDS011;10307;40.100;18.336;2022-12-29T06:26:11;25.23;;;12.93;;
20296;SDS011;10307;40.100;18.336;2022-12-29T06:28:37;22.25;;;12.27;;
20296;SDS011;10307;40.100;18.336;2022-12-29T06:31:04;26.08;;;12.55;;
20296;SDS011;10307;40.100;18.336;2022-12-29T06:33:33;19.35;;;11.60;;
20296;SDS011;10307;40.100;18.336;2022-12-29T06:36:00;28.45;;;12.55;;
20296;SDS011;10307;40.100;18.336;2022-12-29T06:38:26;23.77;;;12.52;;
20296;SDS011;10307;40.100;18.336;2022-12-29T06:40:52;24.20;;;11.93;;
20296;SDS011;10307;40.100;18.336;2022-12-29T06:43:18;28.70;;;14.32;;
20296;SDS011;10307;40.100;18.336;2022-12-29T06:46:04;28.13;;;14.02;;
20296;SDS011;10307;40.100;18.336;2022-12-29T06:48:31;25.85;;;14.18;;
20296;SDS011;10307;40.100;18.336;2022-12-29T06:50:57;26.33;;;13.60;;
20296;SDS011;10307;40.100;18.336;2022-12-29T06:53:23;26.92;;;15.38;;
20296;SDS011;10307;40.100;18.336;2022-12-29T06:55:49;23.02;;;13.32;;
20296;SDS011;10307;40.100;18.336;2022-12-29T06:58:16;26.75;;;14.75;;
20296;SDS011;10307;40.100;18.336;2022-12-29T07:00:42;25.55;;;14.07;;
20296;SDS011;10307;40.100;18.336;2022-12-29T07:03:08;25.60;;;14.35;;
20296;SDS011;10307;40.100;18.336;2022-12-29T07:05:34;23.27;;;13.73;;
20296;SDS011;10307;40.100;18.336;2022-12-29T07:08:01;28.10;;;14.77;;
20296;SDS011;10307;40.100;18.336;2022-12-29T07:10:27;24.80;;;15.07;;
20296;SDS011;10307;40.100;18.336;2022-12-29T07:12:53;35.85;;;20.02;;
20296;SDS011;10307;40.100;18.336;2022-12-29T07:15:19;39.67;;;20.40;;
20296;SDS011;10307;40.100;18.336;2022-12-29T07:17:46;30.70;;;16.38;;
20296;SDS011;10307;40.100;18.336;2022-12-29T07:20:12;24.55;;;12.65;;
20296;SDS011;10307;40.100;18.336;2022-12-29T07:22:38;25.15;;;13.10;;
20296;SDS011;10307;40.100;18.336;2022-12-29T07:25:05;28.30;;;12.68;;
20296;SDS011;10307;40.100;18.336;2022-12-29T07:27:32;22.67;;;11.98;;
20296;SDS011;10307;40.100;18.336;2022-12-29T07:29:58;27.05;;;13.13;;
20296;SDS011;10307;40.100;18.336;2022-12-29T07:32:24;27.30;;;14.63;;
20296;SDS011;10307;40.100;18.336;2022-12-29T07:34:51;28.00;;;15.25;;
20296;SDS011;10307;40.100;18.336;2022-12-29T07:37:17;28.08;;;13.02;;
20296;SDS011;10307;40.100;18.336;2022-12-29T07:39:44;23.02;;;12.90;;
20296;SDS011;10307;40.100;18.336;2022-12-29T07:42:10;29.70;;;15.77;;
20296;SDS011;10307;40.100;18.336;2022-12-29T07:44:41;31.00;;;17.17;;
20296;SDS011;10307;40.100;18.336;2022-12-29T07:47:26;29.70;;;17.48;;
20296;SDS011;10307;40.100;18.336;2022-12-29T07:49:53;29.30;;;15.18;;
20296;SDS011;10307;40.100;18.336;2022-12-29T07:52:19;30.88;;;16.48;;
20296;SDS011;10307;40.100;18.336;2022-12-29T07:54:45;26.38;;;15.50;;
20296;SDS011;10307;40.100;18.336;2022-12-29T07:57:12;31.15;;;16.80;;
20296;SDS011;10307;40.100;18.336;2022-12-29T07:59:38;31.20;;;16.70;;
20296;SDS011;10307;40.100;18.336;2022-12-29T08:02:04;28.95;;;16.67;;
20296;SDS011;10307;40.100;18.336;2022-12-29T08:04:30;32.75;;;17.70;;
20296;SDS011;10307;40.100;18.336;2022-12-29T08:06:57;33.30;;;18.40;;
20296;SDS011;10307;40.100;18.336;2022-12-29T08:09:23;39.65;;;19.08;;
20296;SDS011;10307;40.100;18.336;2022-12-29T08:11:49;36.50;;;21.50;;
20296;SDS011;10307;40.100;18.336;2022-12-29T08:14:15;38.13;;;20.75;;
20296;SDS011;10307;40.100;18.336;2022-12-29T08:16:41;33.53;;;20.45;;
20296;SDS011;10307;40.100;18.336;2022-12-29T08:19:09;42.55;;;21.67;;
20296;SDS011;10307;40.100;18.336;2022-12-29T08:21:37;33.63;;;19.45;;
20296;SDS011;10307;40.100;18.336;2022-12-29T08:24:03;35.08;;;20.25;;
20296;SDS011;10307;40.100;18.336;2022-12-29T08:26:30;37.90;;;22.80;;
20296;SDS011;10307;40.100;18.336;2022-12-29T08:28:56;40.10;;;23.30;;
20296;SDS011;10307;40.100;18.336;2022-12-29T08:31:23;46.38;;;26.95;;
20296;SDS011;10307;40.100;18.336;2022-12-29T08:33:50;48.55;;;25.45;;
20296;SDS011;10307;40.100;18.336;2022-12-29T08:36:16;43.55;;;25.02;;
20296;SDS011;10307;40.100;18.336;2022-12-29T08:38:42;43.67;;;25.50;;
20296;SDS011;10307;40.100;18.336;2022-12-29T08:41:09;43.53;;;24.17;;
20296;SDS011;10307;40.100;18.336;2022-12-29T08:43:35;39.05;;;23.45;;
20296;SDS011;10307;40.100;18.336;2022-12-29T08:46:01;43.38;;;22.23;;
20296;SDS011;10307;40.100;18.336;2022-12-29T08:48:28;39.65;;;23.08;;
20296;SDS011;10307;40.100;18.336;2022-12-29T08:50:54;44.30;;;25.58;;
20296;SDS011;10307;40.100;18.336;2022-12-29T08:53:20;40.92;;;24.15;;
20296;SDS011;10307;40.100;18.336;2022-12-29T08:55:54;46.20;;;26.63;;
20296;SDS011;10307;40.100;18.336;2022-12-29T08:58:44;54.33;;;31.38;;
20296;SDS011;10307;40.100;18.336;2022-12-29T09:01:11;50.30;;;29.38;;
20296;SDS011;10307;40.100;18.336;2022-12-29T09:03:37;51.13;;;29.65;;
20296;SDS011;10307;40.100;18.336;2022-12-29T09:06:03;52.30;;;29.13;;
20296;SDS011;10307;40.100;18.336;2022-12-29T09:08:30;48.38;;;28.52;;
20296;SDS011;10307;40.100;18.336;2022-12-29T09:11:04;41.85;;;27.67;;
20296;SDS011;10307;40.100;18.336;2022-12-29T09:13:39;45.63;;;26.80;;
20296;SDS011;10307;40.100;18.336;2022-12-29T09:16:06;39.25;;;23.67;;
20296;SDS011;10307;40.100;18.336;2022-12-29T09:18:32;33.05;;;20.55;;
20296;SDS011;10307;40.100;18.336;2022-12-29T09:21:00;30.38;;;18.02;;
20296;SDS011;10307;40.100;18.336;2022-12-29T09:23:30;29.73;;;16.55;;
20296;SDS011;10307;40.100;18.336;2022-12-29T09:25:57;26.20;;;15.98;;
20296;SDS011;10307;40.100;18.336;2022-12-29T09:28:24;24.20;;;13.30;;
20296;SDS011;10307;40.100;18.336;2022-12-29T09:30:50;21.40;;;12.18;;
20296;SDS011;10307;40.100;18.336;2022-12-29T09:33:17;20.60;;;11.40;;
20296;SDS011;10307;40.100;18.336;2022-12-29T09:35:44;18.42;;;11.48;;
20296;SDS011;10307;40.100;18.336;2022-12-29T09:38:15;18.27;;;11.35;;
20296;SDS011;10307;40.100;18.336;2022-12-29T09:40:44;22.30;;;11.07;;
20296;SDS011;10307;40.100;18.336;2022-12-29T09:48:23;24.45;;;13.18;;
20296;SDS011;10307;40.100;18.336;2022-12-29T09:50:58;23.25;;;12.60;;
20296;SDS011;10307;40.100;18.336;2022-12-29T09:53:35;24.85;;;12.60;;
20296;SDS011;10307;40.100;18.336;2022-12-29T09:56:05;21.73;;;10.85;;
20296;SDS011;10307;40.100;18.336;2022-12-29T09:58:42;25.40;;;12.63;;
20296;SDS011;10307;40.100;18.336;2022-12-29T10:04:15;21.10;;;10.52;;
20296;SDS011;10307;40.100;18.336;2022-12-29T10:06:44;18.20;;;9.80;;
20296;SDS011;10307;40.100;18.336;2022-12-29T10:12:25;19.52;;;9.43;;
20296;SDS011;10307;40.100;18.336;2022-12-29T10:25:16;21.92;;;12.50;;
20296;SDS011;10307;40.100;18.336;2022-12-29T10:27:49;23.70;;;11.68;;
20296;SDS011;10307;40.100;18.336;2022-12-29T10:30:17;19.17;;;9.48;;
20296;SDS011;10307;40.100;18.336;2022-12-29T10:32:57;17.58;;;9.82;;
20296;SDS011;10307;40.100;18.336;2022-12-29T10:35:30;17.05;;;8.93;;
20296;SDS011;10307;40.100;18.336;2022-12-29T10:44:04;17.25;;;9.02;;
20296;SDS011;10307;40.100;18.336;2022-12-29T10:46:37;19.65;;;9.75;;
20296;SDS011;10307;40.100;18.336;2022-12-29T10:49:06;16.48;;;8.52;;
20296;SDS011;10307;40.100;18.336;2022-12-29T10:51:41;16.67;;;8.23;;
20296;SDS011;10307;40.100;18.336;2022-12-29T10:57:02;17.25;;;8.55;;
20296;SDS011;10307;40.100;18.336;2022-12-29T10:59:35;16.98;;;8.45;;
20296;SDS011;10307;40.100;18.336;2022-12-29T11:02:14;16.33;;;8.05;;
20296;SDS011;10307;40.100;18.336;2022-12-29T11:07:46;16.77;;;8.43;;
20296;SDS011;10307;40.100;18.336;2022-12-29T11:10:18;16.63;;;7.88;;
20296;SDS011;10307;40.100;18.336;2022-12-29T11:16:14;15.93;;;9.13;;
20296;SDS011;10307;40.100;18.336;2022-12-29T11:18:40;22.00;;;9.55;;
20296;SDS011;10307;40.100;18.336;2022-12-29T11:21:33;17.15;;;8.77;;
20296;SDS011;10307;40.100;18.336;2022-12-29T11:24:02;17.02;;;9.68;;
20296;SDS011;10307;40.100;18.336;2022-12-29T11:26:31;14.52;;;8.10;;
20296;SDS011;10307;40.100;18.336;2022-12-29T11:31:40;17.45;;;9.13;;
20296;SDS011;10307;40.100;18.336;2022-12-29T11:34:09;19.48;;;9.38;;
20296;SDS011;10307;40.100;18.336;2022-12-29T11:36:44;17.42;;;10.05;;
20296;SDS011;10307;40.100;18.336;2022-12-29T11:42:41;17.42;;;8.02;;
20296;SDS011;10307;40.100;18.336;2022-12-29T11:45:21;18.30;;;8.80;;
20296;SDS011;10307;40.100;18.336;2022-12-29T11:47:51;16.58;;;9.32;;
20296;SDS011;10307;40.100;18.336;2022-12-29T11:50:39;18.50;;;10.32;;
20296;SDS011;10307;40.100;18.336;2022-12-29T11:53:14;17.83;;;11.07;;
20296;SDS011;10307;40.100;18.336;2022-12-29T11:55:54;19.88;;;10.90;;
20296;SDS011;10307;40.100;18.336;2022-12-29T11:58:27;19.73;;;10.18;;
20296;SDS011;10307;40.100;18.336;2022-12-29T12:01:01;19.02;;;10.25;;
20296;SDS011;10307;40.100;18.336;2022-12-29T12:03:28;23.27;;;11.95;;
20296;SDS011;10307;40.100;18.336;2022-12-29T12:05:58;16.70;;;10.02;;
20296;SDS011;10307;40.100;18.336;2022-12-29T12:08:37;18.88;;;9.30;;
20296;SDS011;10307;40.100;18.336;2022-12-29T12:11:17;17.30;;;9.30;;
20296;SDS011;10307;40.100;18.336;2022-12-29T12:14:00;26.33;;;15.23;;
20296;SDS011;10307;40.100;18.336;2022-12-29T12:17:31;25.20;;;13.40;;
20296;SDS011;10307;40.100;18.336;2022-12-29T12:25:43;17.27;;;9.07;;
20296;SDS011;10307;40.100;18.336;2022-12-29T12:28:20;18.65;;;8.48;;
20296;SDS011;10307;40.100;18.336;2022-12-29T12:30:56;14.95;;;9.07;;
20296;SDS011;10307;40.100;18.336;2022-12-29T12:33:27;17.65;;;7.65;;
20296;SDS011;10307;40.100;18.336;2022-12-29T12:39:11;18.85;;;9.55;;
20296;SDS011;10307;40.100;18.336;2022-12-29T12:45:07;17.65;;;7.95;;
20296;SDS011;10307;40.100;18.336;2022-12-29T12:59:46;46.17;;;26.40;;
20296;SDS011;10307;40.100;18.336;2022-12-29T13:02:40;17.75;;;11.85;;
20296;SDS011;10307;40.100;18.336;2022-12-29T13:11:12;17.40;;;9.57;;
20296;SDS011;10307;40.100;18.336;2022-12-29T13:14:05;18.48;;;10.13;;
20296;SDS011;10307;40.100;18.336;2022-12-29T13:17:00;17.17;;;10.55;;
20296;SDS011;10307;40.100;18.336;2022-12-29T13:25:31;18.67;;;12.35;;
20296;SDS011;10307;40.100;18.336;2022-12-29T13:29:12;16.23;;;8.60;;
20296;SDS011;10307;40.100;18.336;2022-12-29T13:34:09;16.77;;;10.13;;
20296;SDS011;10307;40.100;18.336;2022-12-29T13:36:53;19.27;;;8.15;;
20296;SDS011;10307;40.100;18.336;2022-12-29T13:39:35;17.27;;;8.43;;
20296;SDS011;10307;40.100;18.336;2022-12-29T13:42:06;15.30;;;9.13;;
20296;SDS011;10307;40.100;18.336;2022-12-29T13:44:35;17.45;;;9.43;;
20296;SDS011;10307;40.100;18.336;2022-12-29T13:47:11;23.15;;;11.55;;
20296;SDS011;10307;40.100;18.336;2022-12-29T13:49:44;23.17;;;10.40;;
20296;SDS011;10307;40.100;18.336;2022-12-29T13:52:24;18.98;;;9.35;;
20296;SDS011;10307;40.100;18.336;2022-12-29T13:55:00;15.82;;;7.65;;
20296;SDS011;10307;40.100;18.336;2022-12-29T14:00:56;14.85;;;8.60;;
20296;SDS011;10307;40.100;18.336;2022-12-29T14:03:51;17.60;;;9.52;;
20296;SDS011;10307;40.100;18.336;2022-12-29T14:08:45;21.02;;;9.95;;
20296;SDS011;10307;40.100;18.336;2022-12-29T14:11:14;18.13;;;9.52;;
20296;SDS011;10307;40.100;18.336;2022-12-29T14:13:43;19.98;;;11.60;;
20296;SDS011;10307;40.100;18.336;2022-12-29T14:16:31;18.75;;;10.98;;
20296;SDS011;10307;40.100;18.336;2022-12-29T14:19:59;21.65;;;11.32;;
20296;SDS011;10307;40.100;18.336;2022-12-29T14:21:58;21.25;;;11.98;;
20296;SDS011;10307;40.100;18.336;2022-12-29T14:27:00;17.77;;;10.27;;
20296;SDS011;10307;40.100;18.336;2022-12-29T14:34:55;19.27;;;10.98;;
20296;SDS011;10307;40.100;18.336;2022-12-29T14:37:45;25.80;;;12.85;;
20296;SDS011;10307;40.100;18.336;2022-12-29T14:40:19;26.50;;;13.65;;
20296;SDS011;10307;40.100;18.336;2022-12-29T14:42:51;26.73;;;15.35;;
20296;SDS011;10307;40.100;18.336;2022-12-29T14:45:26;23.02;;;12.80;;
20296;SDS011;10307;40.100;18.336;2022-12-29T14:47:58;23.95;;;13.25;;
20296;SDS011;10307;40.100;18.336;2022-12-29T14:50:33;28.15;;;16.73;;
20296;SDS011;10307;40.100;18.336;2022-12-29T14:53:06;29.27;;;17.58;;
20296;SDS011;10307;40.100;18.336;2022-12-29T14:56:13;35.35;;;22.33;;
20296;SDS011;10307;40.100;18.336;2022-12-29T14:58:49;30.95;;;21.05;;
20296;SDS011;10307;40.100;18.336;2022-12-29T15:01:39;38.92;;;21.40;;
20296;SDS011;10307;40.100;18.336;2022-12-29T15:04:34;32.63;;;18.97;;
20296;SDS011;10307;40.100;18.336;2022-12-29T15:07:02;25.60;;;14.95;;
20296;SDS011;10307;40.100;18.336;2022-12-29T15:12:19;22.67;;;14.82;;
20296;SDS011;10307;40.100;18.336;2022-12-29T15:15:17;25.92;;;13.90;;
20296;SDS011;10307;40.100;18.336;2022-12-29T15:17:48;23.60;;;14.82;;
20296;SDS011;10307;40.100;18.336;2022-12-29T15:20:30;24.40;;;14.85;;
20296;SDS011;10307;40.100;18.336;2022-12-29T15:22:58;27.05;;;16.00;;
20296;SDS011;10307;40.100;18.336;2022-12-29T15:25:29;32.97;;;20.33;;
20296;SDS011;10307;40.100;18.336;2022-12-29T15:28:03;36.33;;;19.40;;
20296;SDS011;10307;40.100;18.336;2022-12-29T15:30:32;43.95;;;22.33;;
20296;SDS011;10307;40.100;18.336;2022-12-29T15:32:59;49.28;;;30.80;;
20296;SDS011;10307;40.100;18.336;2022-12-29T15:35:29;50.03;;;30.35;;
20296;SDS011;10307;40.100;18.336;2022-12-29T15:38:00;41.65;;;27.40;;
20296;SDS011;10307;40.100;18.336;2022-12-29T15:40:38;51.78;;;28.63;;
20296;SDS011;10307;40.100;18.336;2022-12-29T15:43:14;47.53;;;31.60;;
20296;SDS011;10307;40.100;18.336;2022-12-29T15:45:51;49.70;;;31.00;;
20296;SDS011;10307;40.100;18.336;2022-12-29T15:48:21;48.30;;;30.92;;
20296;SDS011;10307;40.100;18.336;2022-12-29T15:50:49;49.70;;;32.05;;
20296;SDS011;10307;40.100;18.336;2022-12-29T15:53:49;55.67;;;34.83;;
20296;SDS011;10307;40.100;18.336;2022-12-29T15:56:12;56.10;;;34.80;;
20296;SDS011;10307;40.100;18.336;2022-12-29T15:58:45;55.63;;;35.20;;
20296;SDS011;10307;40.100;18.336;2022-12-29T16:01:34;53.88;;;34.45;;
20296;SDS011;10307;40.100;18.336;2022-12-29T16:04:08;51.45;;;34.72;;
20296;SDS011;10307;40.100;18.336;2022-12-29T16:06:35;60.53;;;38.45;;
20296;SDS011;10307;40.100;18.336;2022-12-29T16:09:16;59.17;;;38.17;;
20296;SDS011;10307;40.100;18.336;2022-12-29T16:11:45;67.55;;;41.15;;
20296;SDS011;10307;40.100;18.336;2022-12-29T16:14:17;69.68;;;42.95;;
20296;SDS011;10307;40.100;18.336;2022-12-29T16:16:47;84.47;;;52.80;;
20296;SDS011;10307;40.100;18.336;2022-12-29T16:19:21;71.60;;;41.83;;
20296;SDS011;10307;40.100;18.336;2022-12-29T16:21:49;84.82;;;46.95;;
20296;SDS011;10307;40.100;18.336;2022-12-29T16:24:20;80.38;;;47.15;;
20296;SDS011;10307;40.100;18.336;2022-12-29T16:27:02;76.97;;;45.08;;
20296;SDS011;10307;40.100;18.336;2022-12-29T16:29:40;81.25;;;45.80;;
20296;SDS011;10307;40.100;18.336;2022-12-29T16:32:25;85.70;;;45.55;;
20296;SDS011;10307;40.100;18.336;2022-12-29T16:35:05;70.05;;;39.45;;
20296;SDS011;10307;40.100;18.336;2022-12-29T16:37:37;60.25;;;36.30;;
20296;SDS011;10307;40.100;18.336;2022-12-29T16:43:01;61.13;;;37.67;;
20296;SDS011;10307;40.100;18.336;2022-12-29T16:48:16;60.58;;;34.97;;
20296;SDS011;10307;40.100;18.336;2022-12-29T16:50:51;65.70;;;40.63;;
20296;SDS011;10307;40.100;18.336;2022-12-29T16:53:39;65.93;;;40.65;;
20296;SDS011;10307;40.100;18.336;2022-12-29T16:56:26;61.60;;;38.70;;
20296;SDS011;10307;40.100;18.336;2022-12-29T16:59:01;53.13;;;34.67;;
20296;SDS011;10307;40.100;18.336;2022-12-29T17:01:30;58.13;;;33.08;;
20296;SDS011;10307;40.100;18.336;2022-12-29T17:04:00;52.17;;;33.20;;
20296;SDS011;10307;40.100;18.336;2022-12-29T17:06:35;66.55;;;37.35;;
20296;SDS011;10307;40.100;18.336;2022-12-29T17:09:15;69.03;;;43.13;;